Hauptseite
METAR-TAF:

METAR-TAF

Flughäfen :

Aigen im Ennstal, Österreich

Breite: 47-32N, Länge: 014-08E, Höhe: 638 m

METAR: fehlend

Zeit: 13:25 (12:25 UTC)

Prognose

Neuester Wetterbericht von vor 4 Stunden und 10 Minuten, um 08:15 UTC
Gültige Prognose vom 16 um 09 UTC bis 16 um 18 UTC
Wind 3 kt aus unterschiedlichen Richtungen
Sichtweite: 0200 m
in der Höhe von 200 ft
Gefrierender Nebel
Übergehend zu
vom 16 um 09 UTC bis 16 um 10 UTC
Sichtweite 10 km oder mehr
Leicht bewölkt in der Höhe von 27000 ft
Zeitweise
vom 16 um 11 UTC bis 16 um 16 UTC
Wind 7 kt aus Ost/Nordost

TAF: LOXA 160815Z 1609/1618 VRB03KT 0200 FZFG VV002 BECMG 1609/1610 9999 NSW FEW270 TEMPO 1611/1616 06007KT

Wetterbeobachtungen und Prognosen von mehr als 4000 Flughäfen (METAR und TAF Bericht).

Die verfügbaren Stationen werden durch gelbe und rote Markierungen auf der Karte dargestellt.

Führen Sie die Maus auf sie, um den Namen der Station zu sehen.

Darauf klicken, um die Beobachtung von Wetterbeobachtungen und Prognosen zu sehen.

Um die Karte zu ändern : klicken Sie auf den grünen Tasten mit einem schwarzen Kreuz Zum Vergrößern, auf den grünen Button mit einem Gedankenstrich zu verkleinern, oder auf die grünen Pfeile für benachbarte Karten.


METAR-TAF: